createdAt,value
2022-10-11T00:01:04.972Z,49.90
2022-10-11T00:03:33.263Z,49.80
2022-10-11T00:06:03.432Z,49.70
2022-10-11T00:08:33.691Z,49.70
2022-10-11T00:11:04.520Z,49.70
2022-10-11T00:13:33.252Z,49.60
2022-10-11T00:16:01.763Z,49.60
2022-10-11T00:18:30.242Z,49.60
2022-10-11T00:21:03.213Z,49.70
2022-10-11T00:23:33.346Z,49.70
2022-10-11T00:26:04.783Z,49.70
2022-10-11T00:28:34.183Z,49.90
2022-10-11T00:31:03.044Z,50.00
2022-10-11T00:33:31.625Z,49.90
2022-10-11T00:36:00.965Z,49.90
2022-10-11T00:38:31.654Z,49.90
2022-10-11T00:41:02.155Z,50.00
2022-10-11T00:43:32.425Z,50.10
2022-10-11T00:46:04.808Z,50.10
2022-10-11T00:48:41.572Z,50.20
2022-10-11T00:51:17.058Z,50.40
2022-10-11T00:53:46.997Z,50.40
2022-10-11T00:56:21.880Z,50.50
2022-10-11T00:58:50.825Z,50.40
2022-10-11T01:01:19.246Z,50.60
2022-10-11T01:03:48.038Z,50.80
2022-10-11T01:06:17.297Z,51.10
2022-10-11T01:08:46.274Z,50.80
2022-10-11T01:11:18.784Z,50.70
2022-10-11T01:13:57.474Z,50.70
2022-10-11T01:16:32.945Z,50.80
2022-10-11T01:19:13.183Z,50.80
2022-10-11T01:21:47.951Z,51.00
2022-10-11T01:24:44.556Z,50.80
2022-10-11T01:27:39.777Z,50.80
2022-10-11T01:30:28.605Z,50.90
2022-10-11T01:33:11.715Z,50.90
2022-10-11T01:35:44.018Z,51.00
2022-10-11T01:38:21.404Z,51.40
2022-10-11T01:40:54.092Z,51.30
2022-10-11T01:43:23.794Z,51.30
2022-10-11T01:45:55.665Z,51.40
2022-10-11T01:48:24.063Z,51.30
2022-10-11T01:50:54.765Z,51.40
2022-10-11T01:53:47.362Z,51.40
2022-10-11T01:56:31.982Z,51.40
2022-10-11T01:59:21.543Z,51.40
2022-10-11T02:01:58.993Z,51.30
2022-10-11T02:04:32.648Z,51.40
2022-10-11T02:07:06.698Z,51.40
2022-10-11T02:09:39.914Z,51.30
2022-10-11T02:12:12.294Z,51.40
2022-10-11T02:14:44.874Z,51.40
2022-10-11T02:17:18.374Z,51.50
2022-10-11T02:19:51.294Z,51.50
2022-10-11T02:22:24.187Z,51.50
2022-10-11T02:24:57.242Z,51.60
2022-10-11T02:27:30.834Z,51.60
2022-10-11T02:30:02.664Z,51.50
2022-10-11T02:32:34.114Z,51.60
2022-10-11T02:35:03.312Z,51.60
2022-10-11T02:37:37.074Z,51.60
2022-10-11T02:40:12.176Z,51.70
2022-10-11T02:42:45.427Z,51.70
2022-10-11T02:45:18.503Z,51.50
2022-10-11T02:47:48.855Z,51.60
2022-10-11T02:50:17.695Z,51.90
2022-10-11T02:52:45.956Z,51.70
2022-10-11T02:55:14.281Z,51.80
2022-10-11T02:57:42.587Z,52.00
2022-10-11T03:00:12.043Z,52.00
2022-10-11T03:02:40.474Z,52.00
2022-10-11T03:05:10.437Z,51.90
2022-10-11T03:07:38.852Z,51.80
2022-10-11T03:10:08.307Z,52.00
2022-10-11T03:12:36.672Z,51.90
2022-10-11T03:15:05.364Z,51.90
2022-10-11T03:17:37.472Z,52.00
2022-10-11T03:20:06.972Z,52.00
2022-10-11T03:22:36.744Z,52.00
2022-10-11T03:25:05.367Z,52.00
2022-10-11T03:27:34.395Z,52.00
2022-10-11T03:30:02.873Z,52.00
2022-10-11T03:32:31.406Z,52.10
2022-10-11T03:34:59.795Z,52.10
2022-10-11T03:37:28.410Z,52.10
2022-10-11T03:39:58.048Z,52.30
2022-10-11T03:42:26.432Z,52.20
2022-10-11T03:44:54.689Z,52.30
2022-10-11T03:47:22.925Z,52.30
2022-10-11T03:49:51.191Z,52.30
2022-10-11T03:52:19.482Z,52.50
2022-10-11T03:54:47.779Z,52.60
2022-10-11T03:57:17.414Z,52.70
2022-10-11T03:59:45.657Z,52.60
2022-10-11T04:02:14.080Z,52.70
2022-10-11T04:04:42.495Z,52.70
2022-10-11T04:07:11.164Z,52.70
2022-10-11T04:09:39.510Z,52.90
2022-10-11T04:12:07.997Z,53.00
2022-10-11T04:14:37.532Z,53.10
2022-10-11T04:17:05.925Z,53.10
2022-10-11T04:19:35.835Z,53.10
2022-10-11T04:22:04.389Z,53.10
2022-10-11T04:24:32.764Z,53.00
2022-10-11T04:27:01.632Z,53.30
2022-10-11T04:29:32.643Z,53.30
2022-10-11T04:32:02.560Z,53.10
2022-10-11T04:34:31.466Z,53.30
2022-10-11T04:36:59.694Z,53.50
2022-10-11T04:39:28.048Z,53.50
2022-10-11T04:41:56.402Z,53.60
2022-10-11T04:44:24.683Z,53.60
2022-10-11T04:46:53.092Z,53.40
2022-10-11T04:49:23.294Z,53.50
2022-10-11T04:51:51.717Z,53.40
2022-10-11T04:54:19.984Z,53.40
2022-10-11T04:56:48.354Z,53.60
2022-10-11T04:59:16.605Z,53.70
2022-10-11T05:01:45.137Z,53.50
2022-10-11T05:04:13.562Z,53.60
2022-10-11T05:06:43.444Z,53.50
2022-10-11T05:09:11.733Z,53.50
2022-10-11T05:11:40.046Z,53.50
2022-10-11T05:14:08.308Z,53.50
2022-10-11T05:16:36.791Z,53.50
2022-10-11T05:19:05.167Z,53.70
2022-10-11T05:21:33.690Z,53.80
2022-10-11T05:24:03.351Z,54.00
2022-10-11T05:26:31.863Z,54.10
2022-10-11T05:29:00.221Z,54.10
2022-10-11T05:31:28.737Z,54.70
2022-10-11T05:33:57.047Z,54.20
2022-10-11T05:36:25.321Z,54.30
2022-10-11T05:38:53.673Z,54.20
2022-10-11T05:41:23.394Z,54.40
2022-10-11T05:43:51.734Z,54.40
2022-10-11T05:46:20.031Z,54.70
2022-10-11T05:48:48.329Z,55.00
2022-10-11T05:51:16.684Z,54.90
2022-10-11T05:53:44.952Z,54.60
2022-10-11T05:56:21.635Z,54.40
2022-10-11T05:58:51.885Z,54.40
2022-10-11T06:01:23.211Z,54.30
2022-10-11T06:03:52.208Z,54.20
2022-10-11T06:06:21.176Z,54.20
2022-10-11T06:08:50.045Z,54.30
2022-10-11T06:11:21.256Z,54.20
2022-10-11T06:13:51.043Z,54.30
2022-10-11T06:16:19.373Z,54.30
2022-10-11T06:18:47.995Z,54.40
2022-10-11T06:21:16.589Z,54.50
2022-10-11T06:23:48.975Z,54.40
2022-10-11T06:26:17.746Z,54.40
2022-10-11T06:28:46.208Z,54.20
2022-10-11T06:31:16.150Z,54.60
2022-10-11T06:33:44.472Z,54.00
2022-10-11T06:36:14.654Z,54.00
2022-10-11T06:38:45.270Z,54.10
2022-10-11T06:41:17.286Z,54.10
2022-10-11T06:43:46.110Z,54.10
2022-10-11T06:46:16.042Z,54.20
2022-10-11T06:48:46.635Z,54.20
2022-10-11T06:51:17.596Z,54.10
2022-10-11T06:53:49.374Z,54.00
2022-10-11T06:56:17.734Z,53.90
2022-10-11T06:58:46.027Z,53.90
2022-10-11T07:01:19.189Z,53.90
2022-10-11T07:03:48.256Z,53.90
2022-10-11T07:06:18.542Z,53.80
2022-10-11T07:08:47.486Z,53.70
2022-10-11T07:11:17.454Z,53.70
2022-10-11T07:13:51.357Z,53.70
2022-10-11T07:16:22.093Z,54.10
2022-10-11T07:18:58.935Z,54.40
2022-10-11T07:21:29.103Z,54.50
2022-10-11T07:23:57.405Z,54.90
2022-10-11T07:26:25.738Z,55.40
2022-10-11T07:28:54.181Z,54.90
2022-10-11T07:31:26.180Z,54.10
2022-10-11T07:33:54.880Z,52.60
2022-10-11T07:36:24.420Z,51.10
2022-10-11T07:38:52.809Z,51.00
2022-10-11T07:41:21.948Z,49.70
2022-10-11T07:43:51.158Z,49.20
2022-10-11T07:46:19.925Z,48.70
2022-10-11T07:48:50.323Z,48.20
2022-10-11T07:51:20.658Z,48.50
2022-10-11T07:53:50.720Z,49.50
2022-10-11T07:56:21.478Z,49.90
2022-10-11T07:58:52.555Z,49.80
2022-10-11T08:01:21.710Z,49.00
2022-10-11T08:03:51.961Z,48.30
2022-10-11T08:06:21.805Z,47.50
2022-10-11T08:08:50.874Z,46.60
2022-10-11T08:11:23.822Z,45.70
2022-10-11T08:13:52.494Z,43.70
2022-10-11T08:16:21.924Z,43.40
2022-10-11T08:18:51.733Z,42.90
2022-10-11T08:21:20.425Z,41.00
2022-10-11T08:23:48.839Z,40.80
2022-10-11T08:26:17.264Z,40.20
2022-10-11T08:28:45.650Z,39.30
2022-10-11T08:31:14.940Z,38.00
2022-10-11T08:33:43.481Z,36.40
2022-10-11T08:36:14.010Z,34.90
2022-10-11T08:38:42.766Z,34.00
2022-10-11T08:41:28.074Z,34.00
2022-10-11T08:44:07.035Z,33.70
2022-10-11T08:46:38.137Z,33.70
2022-10-11T08:49:09.773Z,33.70
2022-10-11T08:51:44.172Z,33.90
2022-10-11T08:54:20.036Z,34.50
2022-10-11T08:56:48.470Z,34.70
2022-10-11T08:59:27.833Z,34.60
2022-10-11T09:02:02.960Z,34.60
2022-10-11T09:04:32.443Z,34.50
2022-10-11T09:07:08.484Z,33.80
2022-10-11T09:09:56.754Z,33.00
2022-10-11T09:12:40.924Z,33.30
2022-10-11T09:15:21.759Z,33.20
2022-10-11T09:18:09.852Z,32.70
2022-10-11T09:20:53.404Z,32.40
2022-10-11T09:23:39.368Z,32.10
2022-10-11T09:26:11.014Z,32.80
2022-10-11T09:28:51.944Z,33.00
2022-10-11T09:31:20.482Z,33.10
2022-10-11T09:33:50.681Z,32.60
2022-10-11T09:36:26.814Z,31.90
2022-10-11T09:39:06.434Z,31.60
2022-10-11T09:41:42.690Z,31.60
2022-10-11T09:44:19.704Z,31.70
2022-10-11T09:46:49.561Z,32.40
2022-10-11T09:49:22.665Z,32.80
2022-10-11T09:51:55.447Z,33.00
2022-10-11T09:54:38.824Z,32.60
2022-10-11T09:57:07.447Z,32.20
2022-10-11T09:59:36.289Z,32.60
2022-10-11T10:02:23.095Z,31.80
2022-10-11T10:05:15.875Z,31.40
2022-10-11T10:08:05.404Z,31.40
2022-10-11T10:10:39.810Z,31.20
2022-10-11T10:13:20.789Z,31.40
2022-10-11T10:15:51.961Z,30.70
2022-10-11T10:18:25.404Z,31.20
2022-10-11T10:20:56.628Z,31.50
2022-10-11T10:23:27.374Z,31.20
2022-10-11T10:26:17.077Z,31.10
2022-10-11T10:29:00.901Z,31.30
2022-10-11T10:31:49.427Z,30.80
2022-10-11T10:34:29.438Z,30.80
2022-10-11T10:37:01.522Z,30.60
2022-10-11T10:39:37.956Z,31.20
2022-10-11T10:42:15.494Z,31.30
2022-10-11T10:44:44.537Z,31.40
2022-10-11T10:47:20.356Z,31.00
2022-10-11T10:49:56.524Z,30.80
2022-10-11T10:52:50.456Z,30.60
2022-10-11T10:55:26.846Z,30.10
2022-10-11T10:58:07.426Z,30.50
2022-10-11T11:00:43.944Z,30.30
2022-10-11T11:03:20.426Z,30.00
2022-10-11T11:05:55.514Z,29.60
2022-10-11T11:08:39.840Z,29.40
2022-10-11T11:11:24.585Z,28.80
2022-10-11T11:13:59.603Z,29.10
2022-10-11T11:16:35.754Z,29.30
2022-10-11T11:19:10.655Z,29.40
2022-10-11T11:21:45.365Z,29.50
2022-10-11T11:24:25.186Z,29.90
2022-10-11T11:26:59.099Z,29.90
2022-10-11T11:29:43.685Z,30.00
2022-10-11T11:32:21.598Z,29.70
2022-10-11T11:34:55.916Z,29.80
2022-10-11T11:37:29.516Z,29.90
2022-10-11T11:40:03.721Z,30.00
2022-10-11T11:42:37.024Z,30.00
2022-10-11T11:45:18.521Z,30.20
2022-10-11T11:47:53.486Z,30.50
2022-10-11T11:50:25.322Z,30.80
2022-10-11T11:52:55.922Z,31.00
2022-10-11T11:55:30.903Z,31.40
2022-10-11T11:58:09.457Z,31.60
2022-10-11T12:00:48.053Z,32.10
2022-10-11T12:03:22.525Z,32.50
2022-10-11T12:06:19.977Z,33.00
2022-10-11T12:08:56.291Z,33.50
2022-10-11T12:11:31.785Z,33.90
2022-10-11T12:14:17.962Z,34.30
2022-10-11T12:17:11.460Z,34.70
2022-10-11T12:19:42.935Z,35.00
2022-10-11T12:22:39.777Z,35.20
2022-10-11T12:25:35.067Z,35.80
2022-10-11T12:28:24.371Z,36.00
2022-10-11T12:30:54.636Z,36.20
2022-10-11T12:33:25.994Z,36.60
2022-10-11T12:36:05.674Z,36.80
2022-10-11T12:38:39.798Z,37.10
2022-10-11T12:41:50.223Z,37.30
2022-10-11T12:44:23.563Z,37.70
2022-10-11T12:47:22.318Z,37.60
2022-10-11T12:50:04.997Z,37.90
2022-10-11T12:52:40.596Z,37.90
2022-10-11T12:55:27.643Z,38.10
2022-10-11T12:58:20.537Z,38.20
2022-10-11T13:01:18.767Z,38.40
2022-10-11T13:03:58.263Z,38.80
2022-10-11T13:06:30.190Z,38.90
2022-10-11T13:09:05.347Z,39.10
2022-10-11T13:11:36.713Z,39.20
2022-10-11T13:14:10.714Z,39.30
2022-10-11T13:17:00.140Z,39.50
2022-10-11T13:19:29.124Z,39.80
2022-10-11T13:22:01.247Z,39.90
2022-10-11T13:24:37.715Z,40.10
2022-10-11T13:27:07.357Z,40.40
2022-10-11T13:29:39.245Z,40.60
2022-10-11T13:32:13.244Z,40.80
2022-10-11T13:34:42.958Z,40.90
2022-10-11T13:37:18.504Z,41.10
2022-10-11T13:39:48.992Z,41.50
2022-10-11T13:42:18.657Z,42.20
2022-10-11T13:44:48.259Z,42.90
2022-10-11T13:47:19.995Z,42.80
2022-10-11T13:49:53.534Z,42.70
2022-10-11T13:52:25.680Z,42.10
2022-10-11T13:55:11.574Z,41.90
2022-10-11T13:57:44.855Z,41.40
2022-10-11T14:00:25.425Z,41.30
2022-10-11T14:02:58.453Z,41.00
2022-10-11T14:05:39.733Z,40.60
2022-10-11T14:08:23.103Z,40.50
2022-10-11T14:10:56.755Z,40.20
2022-10-11T14:13:31.176Z,40.40
2022-10-11T14:16:06.039Z,40.00
2022-10-11T14:18:44.479Z,39.70
2022-10-11T14:21:29.835Z,39.00
2022-10-11T14:24:01.654Z,38.70
2022-10-11T14:26:35.263Z,38.40
2022-10-11T14:29:06.714Z,37.80
2022-10-11T14:31:41.713Z,37.40
2022-10-11T14:34:16.819Z,36.70
2022-10-11T14:36:45.236Z,36.50
2022-10-11T14:39:18.603Z,36.20
2022-10-11T14:41:47.825Z,36.00
2022-10-11T14:44:17.208Z,35.80
2022-10-11T14:46:46.995Z,35.60
2022-10-11T14:49:17.891Z,35.50
2022-10-11T14:51:48.216Z,35.60
2022-10-11T14:54:20.775Z,35.60
2022-10-11T14:56:49.192Z,35.70
2022-10-11T14:59:20.059Z,35.80
2022-10-11T15:01:51.968Z,35.80
2022-10-11T15:04:20.812Z,36.00
2022-10-11T15:06:49.592Z,36.00
2022-10-11T15:09:20.898Z,36.10
2022-10-11T15:11:51.217Z,36.20
2022-10-11T15:14:19.626Z,36.40
2022-10-11T15:16:47.966Z,36.60
2022-10-11T15:19:18.364Z,36.70
2022-10-11T15:21:47.099Z,37.00
2022-10-11T15:24:15.792Z,37.30
2022-10-11T15:26:45.748Z,37.60
2022-10-11T15:29:17.453Z,38.00
2022-10-11T15:31:46.946Z,38.30
2022-10-11T15:34:15.259Z,38.60
2022-10-11T15:36:43.824Z,38.90
2022-10-11T15:39:33.851Z,39.40
2022-10-11T15:42:03.545Z,39.70
2022-10-11T15:44:31.876Z,39.90
2022-10-11T15:47:00.234Z,40.10
2022-10-11T15:49:28.865Z,40.40
2022-10-11T15:51:57.229Z,40.70
2022-10-11T15:54:25.573Z,40.90
2022-10-11T15:56:53.854Z,41.00
2022-10-11T15:59:23.464Z,41.40
2022-10-11T16:01:51.852Z,41.60
2022-10-11T16:04:20.175Z,41.90
2022-10-11T16:06:48.517Z,42.10
2022-10-11T16:09:16.778Z,42.20
2022-10-11T16:11:45.100Z,42.50
2022-10-11T16:14:13.332Z,42.70
2022-10-11T16:16:42.936Z,43.00
2022-10-11T16:19:11.218Z,43.20
2022-10-11T16:21:39.574Z,43.40
2022-10-11T16:24:08.979Z,43.60
2022-10-11T16:26:37.245Z,44.00
2022-10-11T16:29:05.462Z,44.10
2022-10-11T16:31:33.747Z,44.40
2022-10-11T16:34:03.651Z,44.50
2022-10-11T16:36:40.922Z,44.80
2022-10-11T16:39:12.985Z,44.90
2022-10-11T16:41:42.679Z,45.20
2022-10-11T16:44:14.476Z,45.40
2022-10-11T16:46:43.316Z,45.60
2022-10-11T16:49:12.938Z,45.70
2022-10-11T16:51:41.294Z,46.00
2022-10-11T16:54:09.536Z,46.30
2022-10-11T16:56:40.090Z,46.50
2022-10-11T16:59:08.686Z,46.70
2022-10-11T17:01:37.504Z,46.90
2022-10-11T17:04:06.392Z,47.20
2022-10-11T17:06:36.063Z,47.50
2022-10-11T17:09:04.519Z,47.60
2022-10-11T17:11:32.855Z,47.80
2022-10-11T17:14:02.392Z,47.90
2022-10-11T17:16:30.660Z,48.30
2022-10-11T17:18:58.965Z,48.30
2022-10-11T17:21:27.203Z,48.50
2022-10-11T17:23:56.865Z,48.80
2022-10-11T17:26:28.171Z,49.50
2022-10-11T17:28:57.316Z,49.10
2022-10-11T17:31:25.886Z,49.30
2022-10-11T17:33:54.887Z,49.40
2022-10-11T17:36:27.835Z,49.50
2022-10-11T17:38:57.585Z,49.70
2022-10-11T17:41:30.906Z,49.70
2022-10-11T17:44:01.232Z,49.80
2022-10-11T17:46:32.555Z,49.90
2022-10-11T17:49:02.216Z,50.10
2022-10-11T17:51:30.589Z,50.20
2022-10-11T17:54:00.194Z,50.40
2022-10-11T17:56:33.651Z,50.50
2022-10-11T17:59:05.107Z,50.70
2022-10-11T18:01:33.506Z,50.90
2022-10-11T18:04:03.665Z,51.00
2022-10-11T18:06:34.150Z,51.10
2022-10-11T18:09:05.153Z,51.30
2022-10-11T18:11:34.283Z,51.40
2022-10-11T18:14:02.961Z,51.50
2022-10-11T18:16:32.689Z,51.70
2022-10-11T18:19:03.206Z,51.80
2022-10-11T18:21:34.597Z,52.00
2022-10-11T18:24:07.723Z,52.20
2022-10-11T18:26:36.128Z,52.40
2022-10-11T18:29:04.884Z,52.50
2022-10-11T18:31:35.290Z,52.70
2022-10-11T18:34:04.885Z,52.90
2022-10-11T18:36:33.901Z,53.10
2022-10-11T18:39:07.087Z,53.40
2022-10-11T18:41:36.608Z,53.30
2022-10-11T18:44:07.298Z,53.50
2022-10-11T18:46:36.805Z,53.70
2022-10-11T18:49:05.557Z,53.70
2022-10-11T18:51:35.922Z,54.00
2022-10-11T18:54:06.692Z,54.10
2022-10-11T18:56:37.116Z,54.30
2022-10-11T18:59:06.762Z,54.30
2022-10-11T19:01:38.110Z,54.50
2022-10-11T19:04:08.007Z,54.50
2022-10-11T19:06:38.212Z,54.70
2022-10-11T19:09:11.339Z,54.90
2022-10-11T19:11:40.504Z,54.90
2022-10-11T19:14:11.466Z,55.10
2022-10-11T19:16:42.977Z,55.10
2022-10-11T19:19:12.907Z,55.50
2022-10-11T19:21:41.377Z,55.50
2022-10-11T19:24:11.087Z,55.50
2022-10-11T19:26:41.379Z,55.60
2022-10-11T19:29:11.735Z,55.80
2022-10-11T19:31:44.105Z,56.00
2022-10-11T19:34:13.146Z,56.10
2022-10-11T19:36:42.705Z,56.20
2022-10-11T19:39:14.171Z,56.50
2022-10-11T19:41:43.423Z,56.60
2022-10-11T19:44:12.124Z,56.60
2022-10-11T19:46:57.555Z,56.60
2022-10-11T19:49:27.651Z,56.80
2022-10-11T19:51:56.197Z,57.20
2022-10-11T19:54:25.899Z,57.50
2022-10-11T19:56:54.266Z,57.90
2022-10-11T19:59:22.666Z,58.20
2022-10-11T20:01:53.035Z,58.20
2022-10-11T20:07:10.187Z,59.40
2022-10-11T20:09:39.769Z,60.00
2022-10-11T20:12:08.408Z,60.90
2022-10-11T20:14:36.834Z,61.00
2022-10-11T20:17:05.225Z,62.10
2022-10-11T20:19:33.573Z,62.20
2022-10-11T20:22:02.410Z,62.60
2022-10-11T20:24:33.627Z,62.70
2022-10-11T20:27:07.645Z,62.60
2022-10-11T20:29:35.892Z,62.90
2022-10-11T20:32:04.226Z,63.90
2022-10-11T20:34:32.510Z,63.20
2022-10-11T20:37:00.876Z,63.60
2022-10-11T20:39:29.165Z,63.70
2022-10-11T20:41:57.410Z,63.70
2022-10-11T20:44:27.031Z,63.90
2022-10-11T20:46:56.197Z,64.10
2022-10-11T20:49:25.807Z,64.40
2022-10-11T20:51:54.527Z,64.90
2022-10-11T20:54:22.807Z,65.40
2022-10-11T20:56:51.143Z,65.20
2022-10-11T20:59:19.341Z,65.80
2022-10-11T21:01:48.980Z,66.50
2022-10-11T21:04:19.948Z,66.80
2022-10-11T21:06:49.526Z,66.80
2022-10-11T21:09:19.172Z,66.90
2022-10-11T21:11:48.379Z,67.40
2022-10-11T21:14:17.438Z,67.70
2022-10-11T21:16:45.765Z,67.50
2022-10-11T21:19:16.766Z,67.30
2022-10-11T21:21:52.541Z,67.30
2022-10-11T21:24:22.560Z,67.40
2022-10-11T21:26:50.850Z,68.20
2022-10-11T21:29:19.338Z,68.30
2022-10-11T21:31:47.656Z,68.70
2022-10-11T21:34:17.635Z,69.40
2022-10-11T21:36:45.998Z,70.40
2022-10-11T21:39:14.392Z,70.70
2022-10-11T21:41:43.206Z,72.30
2022-10-11T21:44:11.565Z,74.80
2022-10-11T21:47:05.451Z,74.10
2022-10-11T21:49:29.482Z,73.30
2022-10-11T21:51:58.134Z,73.60
2022-10-11T21:54:26.458Z,73.00
2022-10-11T21:56:54.793Z,72.90
2022-10-11T21:59:23.247Z,73.50
2022-10-11T22:01:52.321Z,74.40
2022-10-11T22:04:20.633Z,74.10
2022-10-11T22:06:50.255Z,74.70
2022-10-11T22:09:18.522Z,76.30
2022-10-11T22:11:46.904Z,77.50
2022-10-11T22:14:15.242Z,77.50
2022-10-11T22:16:43.635Z,77.00
2022-10-11T22:19:12.005Z,76.50
2022-10-11T22:21:44.940Z,76.30
2022-10-11T22:24:15.080Z,76.20
2022-10-11T22:26:43.432Z,76.20
2022-10-11T22:29:11.774Z,76.00
2022-10-11T22:31:40.225Z,76.00
2022-10-11T22:34:08.444Z,76.00
2022-10-11T22:36:36.829Z,75.90
2022-10-11T22:39:08.096Z,75.60
2022-10-11T22:41:38.564Z,75.40
2022-10-11T22:44:07.125Z,75.20
2022-10-11T22:46:35.545Z,75.20
2022-10-11T22:49:03.916Z,75.10
2022-10-11T22:51:32.473Z,75.00
2022-10-11T22:54:00.765Z,75.00
2022-10-11T22:56:29.034Z,75.20
2022-10-11T22:59:00.084Z,75.30
2022-10-11T23:01:28.433Z,75.70
2022-10-11T23:03:56.765Z,76.30
2022-10-11T23:06:25.144Z,77.30
2022-10-11T23:08:53.369Z,76.90
2022-10-11T23:11:21.694Z,76.90
2022-10-11T23:13:49.974Z,76.70
2022-10-11T23:16:19.647Z,76.10
2022-10-11T23:18:47.898Z,75.90
2022-10-11T23:21:16.190Z,75.60
2022-10-11T23:23:44.456Z,75.70
2022-10-11T23:26:14.084Z,76.00
2022-10-11T23:28:43.044Z,76.50
2022-10-11T23:31:13.519Z,77.00
2022-10-11T23:33:43.475Z,77.40
2022-10-11T23:36:16.531Z,77.40
2022-10-11T23:38:44.814Z,77.30
2022-10-11T23:41:13.174Z,77.10
2022-10-11T23:43:41.672Z,77.00
2022-10-11T23:46:09.938Z,77.10
2022-10-11T23:48:38.286Z,77.30
2022-10-11T23:51:08.414Z,78.00
2022-10-11T23:53:37.247Z,78.80
2022-10-11T23:56:06.553Z,79.20
2022-10-11T23:58:35.093Z,79.80
